createdAt,value
2022-11-29T00:00:12.107Z,101074.22
2022-11-29T00:05:15.800Z,101072.31
2022-11-29T00:10:21.107Z,101070.66
2022-11-29T00:15:24.664Z,101076.88
2022-11-29T00:20:28.252Z,101071.59
2022-11-29T00:25:33.471Z,101070.28
2022-11-29T00:30:37.098Z,101069.13
2022-11-29T00:35:40.685Z,101082.38
2022-11-29T00:40:51.750Z,101083.63
2022-11-29T00:45:55.369Z,101076.72
2022-11-29T00:50:59.246Z,101082.50
2022-11-29T00:56:05.652Z,101068.59
2022-11-29T01:01:09.344Z,101084.03
2022-11-29T01:06:15.705Z,101077.69
2022-11-29T01:11:22.655Z,101075.50
2022-11-29T01:16:27.181Z,101075.13
2022-11-29T01:21:31.068Z,101095.94
2022-11-29T01:26:37.189Z,101114.31
2022-11-29T01:31:40.976Z,101114.19
2022-11-29T01:36:44.540Z,101117.69
2022-11-29T01:41:49.716Z,101089.13
2022-11-29T01:46:54.586Z,101089.19
2022-11-29T01:52:01.622Z,101096.94
2022-11-29T01:57:08.834Z,101099.88
2022-11-29T02:02:14.677Z,101101.16
2022-11-29T02:07:18.711Z,101112.34
2022-11-29T02:12:33.835Z,101109.31
2022-11-29T02:17:50.515Z,101093.41
2022-11-29T02:23:02.646Z,101084.88
2022-11-29T02:28:53.176Z,101073.13
2022-11-29T02:34:17.057Z,101072.63
2022-11-29T02:39:34.209Z,101068.41
2022-11-29T02:44:56.583Z,101070.09
2022-11-29T02:50:19.070Z,101071.75
2022-11-29T02:55:29.500Z,101079.59
2022-11-29T03:00:37.259Z,101096.53
2022-11-29T03:05:51.430Z,101112.19
2022-11-29T03:11:04.209Z,101104.28
2022-11-29T03:16:18.057Z,101096.31
2022-11-29T03:21:35.597Z,101104.16
2022-11-29T03:26:45.229Z,101092.00
2022-11-29T03:31:54.984Z,101096.50
2022-11-29T03:37:07.041Z,101084.22
2022-11-29T03:42:14.955Z,101099.16
2022-11-29T03:47:24.485Z,101111.03
2022-11-29T03:52:35.665Z,101130.53
2022-11-29T03:57:50.466Z,101148.31
2022-11-29T04:03:32.993Z,101151.19
2022-11-29T04:09:22.289Z,101144.28
2022-11-29T04:15:06.477Z,101146.09
2022-11-29T04:20:51.686Z,101155.06
2022-11-29T04:26:26.449Z,101165.44
2022-11-29T04:31:38.144Z,101168.16
2022-11-29T04:36:57.998Z,101168.28
2022-11-29T04:42:25.190Z,101167.31
2022-11-29T04:47:44.954Z,101186.59
2022-11-29T04:53:13.498Z,101177.03
2022-11-29T04:58:26.243Z,101174.56
2022-11-29T05:03:39.761Z,101187.59
2022-11-29T05:08:56.969Z,101194.72
2022-11-29T05:14:09.497Z,101206.84
2022-11-29T05:19:41.979Z,101204.13
2022-11-29T05:24:54.380Z,101200.72
2022-11-29T05:30:06.113Z,101198.25
2022-11-29T05:35:41.672Z,101204.38
2022-11-29T05:40:54.177Z,101207.00
2022-11-29T05:46:09.219Z,101212.16
2022-11-29T05:51:21.957Z,101232.28
2022-11-29T05:56:35.184Z,101226.13
2022-11-29T06:01:49.416Z,101214.06
2022-11-29T06:07:01.249Z,101230.56
2022-11-29T06:12:07.756Z,101225.44
2022-11-29T06:17:38.761Z,101235.13
2022-11-29T06:23:00.757Z,101238.63
2022-11-29T06:28:21.674Z,101242.09
2022-11-29T06:33:34.244Z,101237.84
2022-11-29T06:38:38.138Z,101233.50
2022-11-29T06:43:42.212Z,101234.38
2022-11-29T06:48:51.696Z,101221.50
2022-11-29T06:54:05.098Z,101227.50
2022-11-29T06:59:14.974Z,101233.59
2022-11-29T07:04:35.817Z,101218.06
2022-11-29T07:09:39.527Z,101225.03
2022-11-29T07:14:43.965Z,101220.72
2022-11-29T07:20:00.538Z,101227.59
2022-11-29T07:25:18.107Z,101226.72
2022-11-29T07:30:23.340Z,101223.34
2022-11-29T07:35:34.324Z,101221.53
2022-11-29T07:40:44.987Z,101229.44
2022-11-29T07:45:48.669Z,101243.34
2022-11-29T07:50:54.022Z,101231.19
2022-11-29T07:55:58.985Z,101240.81
2022-11-29T08:01:02.594Z,101239.09
2022-11-29T08:06:08.039Z,101234.66
2022-11-29T08:11:13.497Z,101239.88
2022-11-29T08:16:20.799Z,101242.59
2022-11-29T08:21:26.033Z,101249.59
2022-11-29T08:26:31.646Z,101245.28
2022-11-29T08:31:35.915Z,101241.00
2022-11-29T08:36:41.138Z,101229.66
2022-11-29T08:41:44.913Z,101234.00
2022-11-29T08:46:48.496Z,101229.75
2022-11-29T08:51:55.346Z,101226.31
2022-11-29T08:57:37.898Z,101231.63
2022-11-29T09:02:22.432Z,101234.25
2022-11-29T09:07:27.648Z,101225.56
2022-11-29T09:12:32.177Z,101234.50
2022-11-29T09:17:35.892Z,101219.84
2022-11-29T09:22:41.092Z,101227.53
2022-11-29T09:27:44.609Z,101227.59
2022-11-29T09:32:48.124Z,101236.22
2022-11-29T09:37:53.306Z,101232.75
2022-11-29T09:43:01.481Z,101236.22
2022-11-29T09:48:29.933Z,101248.28
2022-11-29T09:53:47.077Z,101256.97
2022-11-29T09:58:56.173Z,101269.19
2022-11-29T10:04:04.581Z,101283.09
2022-11-29T10:09:17.860Z,101282.31
2022-11-29T10:14:27.705Z,101284.06
2022-11-29T10:19:35.971Z,101288.41
2022-11-29T10:24:45.675Z,101284.94
2022-11-29T10:29:49.541Z,101294.47
2022-11-29T10:34:53.453Z,101289.28
2022-11-29T10:40:02.290Z,101298.00
2022-11-29T10:45:11.823Z,101307.56
2022-11-29T10:50:19.785Z,101315.31
2022-11-29T10:55:27.007Z,101313.59
2022-11-29T11:00:31.350Z,101318.78
2022-11-29T11:05:34.954Z,101325.78
2022-11-29T11:10:40.199Z,101325.78
2022-11-29T11:15:43.794Z,101326.66
2022-11-29T11:20:54.634Z,101326.69
2022-11-29T11:26:03.008Z,101329.31
2022-11-29T11:31:08.256Z,101322.41
2022-11-29T11:36:14.521Z,101326.75
2022-11-29T11:41:23.193Z,101319.81
2022-11-29T11:46:47.860Z,101319.81
2022-11-29T11:51:51.983Z,101308.56
2022-11-29T11:56:57.390Z,101325.06
2022-11-29T12:02:00.982Z,101312.91
2022-11-29T12:07:10.450Z,101311.22
2022-11-29T12:12:20.353Z,101312.06
2022-11-29T12:17:32.258Z,101303.38
2022-11-29T12:22:47.923Z,101305.16
2022-11-29T12:27:53.651Z,101302.56
2022-11-29T12:33:16.933Z,101301.72
2022-11-29T12:38:38.130Z,101299.13
2022-11-29T12:43:54.112Z,101312.13
2022-11-29T12:49:05.458Z,101302.63
2022-11-29T12:54:34.799Z,101307.84
2022-11-29T13:00:00.309Z,101294.84
2022-11-29T13:05:12.223Z,101305.28
2022-11-29T13:10:31.012Z,101303.53
2022-11-29T13:15:45.385Z,101305.28
2022-11-29T13:20:58.790Z,101311.38
2022-11-29T13:26:06.486Z,101311.44
2022-11-29T13:31:18.040Z,101314.09
2022-11-29T13:36:26.474Z,101326.22
2022-11-29T13:41:34.903Z,101331.41
2022-11-29T13:46:47.852Z,101337.44
2022-11-29T13:52:05.654Z,101340.03
2022-11-29T13:57:10.706Z,101342.59
2022-11-29T14:02:29.967Z,101343.44
2022-11-29T14:07:33.611Z,101333.91
2022-11-29T14:12:42.488Z,101342.53
2022-11-29T14:17:56.550Z,101343.38
2022-11-29T14:23:16.499Z,101354.59
2022-11-29T14:28:31.527Z,101358.91
2022-11-29T14:34:01.125Z,101366.69
2022-11-29T14:39:24.830Z,101368.44
2022-11-29T14:44:30.034Z,101377.91
2022-11-29T14:49:41.182Z,101382.19
2022-11-29T14:54:55.847Z,101382.22
2022-11-29T15:00:02.208Z,101387.44
2022-11-29T15:05:16.574Z,101392.53
2022-11-29T15:10:24.870Z,101390.78
2022-11-29T15:15:38.864Z,101398.53
2022-11-29T15:20:57.301Z,101401.19
2022-11-29T15:26:02.258Z,101417.63
2022-11-29T15:31:08.222Z,101405.56
2022-11-29T15:36:18.074Z,101410.94
2022-11-29T15:41:23.711Z,101418.78
2022-11-29T15:46:29.426Z,101419.63
2022-11-29T15:51:38.591Z,101431.78
2022-11-29T15:56:46.605Z,101439.56
2022-11-29T16:01:55.259Z,101429.22
2022-11-29T16:07:00.533Z,101437.88
2022-11-29T16:12:04.750Z,101442.19
2022-11-29T16:17:09.633Z,101437.03
2022-11-29T16:22:23.151Z,101439.66
2022-11-29T16:27:26.741Z,101438.72
2022-11-29T16:32:32.853Z,101447.28
2022-11-29T16:37:42.518Z,101449.72
2022-11-29T16:43:06.712Z,101454.84
2022-11-29T16:48:31.853Z,101458.16
2022-11-29T16:53:38.772Z,101460.59
2022-11-29T16:59:26.929Z,101457.72
2022-11-29T17:04:09.404Z,101468.78
2022-11-29T17:09:22.627Z,101473.81
2022-11-29T17:14:26.371Z,101471.72
2022-11-29T17:19:30.456Z,101474.00
2022-11-29T17:24:35.672Z,101479.00
2022-11-29T17:29:39.254Z,101483.88
2022-11-29T17:34:42.881Z,101494.09
2022-11-29T17:39:48.323Z,101498.91
2022-11-29T17:44:52.015Z,101503.06
2022-11-29T17:49:55.645Z,101499.41
2022-11-29T17:55:00.906Z,101510.25
2022-11-29T18:00:05.497Z,101509.97
2022-11-29T18:05:09.850Z,101507.84
2022-11-29T18:10:15.232Z,101501.47
2022-11-29T18:15:19.123Z,101512.59
2022-11-29T18:20:22.667Z,101500.72
2022-11-29T18:25:38.793Z,101499.78
2022-11-29T18:30:42.979Z,101503.63
2022-11-29T18:35:46.747Z,101503.06
2022-11-29T18:40:51.945Z,101500.22
2022-11-29T18:45:55.513Z,101488.84
2022-11-29T18:51:03.104Z,101489.41
2022-11-29T18:56:09.802Z,101490.00
2022-11-29T19:01:15.074Z,101487.53
2022-11-29T19:06:21.174Z,101477.16
2022-11-29T19:11:26.386Z,101478.25
2022-11-29T19:16:31.208Z,101480.19
2022-11-29T19:21:34.915Z,101468.03
2022-11-29T19:26:40.425Z,101467.66
2022-11-29T19:31:44.912Z,101454.00
2022-11-29T19:36:48.842Z,101452.63
2022-11-29T19:41:54.083Z,101454.66
2022-11-29T19:46:57.720Z,101441.63
2022-11-29T19:52:02.965Z,101435.50
2022-11-29T19:57:08.196Z,101417.44
2022-11-29T20:02:12.631Z,101409.19
2022-11-29T20:07:16.367Z,101399.00
2022-11-29T20:12:21.631Z,101399.25
2022-11-29T20:17:25.316Z,101401.75
2022-11-29T20:22:29.035Z,101409.47
2022-11-29T20:27:34.447Z,101401.91
2022-11-29T20:32:38.495Z,101402.47
2022-11-29T20:38:02.725Z,101390.50
2022-11-29T20:43:16.610Z,101379.84
2022-11-29T20:48:22.766Z,101379.91
2022-11-29T20:53:32.828Z,101369.66
2022-11-29T20:58:38.307Z,101374.06
2022-11-29T21:03:42.092Z,101371.38
2022-11-29T21:08:45.697Z,101366.72
2022-11-29T21:13:51.630Z,101364.94
2022-11-29T21:18:55.277Z,101358.63
2022-11-29T21:24:05.723Z,101347.13
2022-11-29T21:29:16.820Z,101340.75
2022-11-29T21:34:21.378Z,101325.22
2022-11-29T21:39:30.719Z,101329.97
2022-11-29T21:44:36.070Z,101321.41
2022-11-29T21:49:40.000Z,101300.44
2022-11-29T21:54:43.849Z,101297.81
2022-11-29T21:59:49.312Z,101297.81
2022-11-29T22:04:52.985Z,101295.19
2022-11-29T22:09:58.632Z,101292.38
2022-11-29T22:15:04.037Z,101293.97
2022-11-29T22:20:08.704Z,101292.25
2022-11-29T22:25:12.467Z,101293.91
2022-11-29T22:30:18.269Z,101282.72
2022-11-29T22:35:22.082Z,101284.25
2022-11-29T22:40:25.712Z,101279.84
2022-11-29T22:45:30.921Z,101272.78
2022-11-29T22:50:34.591Z,101273.75
2022-11-29T22:55:38.270Z,101262.78
2022-11-29T23:00:43.545Z,101267.16
2022-11-29T23:05:47.218Z,101269.53
2022-11-29T23:10:56.343Z,101261.47
2022-11-29T23:16:01.968Z,101268.72
2022-11-29T23:21:08.267Z,101265.31
2022-11-29T23:26:18.812Z,101266.97
2022-11-29T23:31:24.934Z,101246.66
2022-11-29T23:36:28.672Z,101254.56
2022-11-29T23:41:32.213Z,101251.31
2022-11-29T23:46:37.518Z,101260.66
2022-11-29T23:51:41.145Z,101260.41
2022-11-29T23:56:44.764Z,101261.03
